createdAt,value
2024-01-19T00:00:39.856Z,98546.75
2024-01-19T00:03:42.612Z,98535.97
2024-01-19T00:06:44.937Z,98553.22
2024-01-19T00:09:47.464Z,98568.78
2024-01-19T00:12:49.741Z,98583.13
2024-01-19T00:15:53.977Z,98591.87
2024-01-19T00:18:56.225Z,98601.38
2024-01-19T00:21:58.497Z,98610.00
2024-01-19T00:25:00.966Z,98630.38
2024-01-19T00:28:03.185Z,98644.41
2024-01-19T00:31:06.547Z,98647.09
2024-01-19T00:34:08.947Z,98641.56
2024-01-19T00:37:11.405Z,98643.91
2024-01-19T00:40:13.553Z,98647.81
2024-01-19T00:43:16.015Z,98659.28
2024-01-19T00:46:18.182Z,98664.69
2024-01-19T00:49:20.468Z,98671.69
2024-01-19T00:52:22.642Z,98670.88
2024-01-19T00:55:25.155Z,98679.72
2024-01-19T00:58:27.497Z,98677.63
2024-01-19T01:01:29.680Z,98676.88
2024-01-19T01:04:32.019Z,98685.00
2024-01-19T01:07:34.363Z,98693.53
2024-01-19T01:10:36.503Z,98692.75
2024-01-19T01:13:39.417Z,98684.53
2024-01-19T01:16:41.638Z,98689.78
2024-01-19T01:19:44.117Z,98707.47
2024-01-19T01:22:46.513Z,98692.47
2024-01-19T01:25:49.020Z,98705.87
2024-01-19T01:28:51.199Z,98714.81
2024-01-19T01:31:53.629Z,98723.13
2024-01-19T01:34:55.777Z,98739.28
2024-01-19T01:37:57.916Z,98758.00
2024-01-19T01:41:00.093Z,98761.16
2024-01-19T01:44:02.522Z,98782.63
2024-01-19T01:47:04.943Z,98797.50
2024-01-19T01:50:08.114Z,98797.59
2024-01-19T01:53:11.056Z,98790.38
2024-01-19T01:56:13.355Z,98793.06
2024-01-19T01:59:15.692Z,98787.13
2024-01-19T02:02:18.256Z,98783.22
2024-01-19T02:05:20.590Z,98785.16
2024-01-19T02:08:22.806Z,98789.31
2024-01-19T02:11:25.799Z,98802.88
2024-01-19T02:14:28.071Z,98798.91
2024-01-19T02:17:30.630Z,98792.47
2024-01-19T02:20:33.187Z,98789.22
2024-01-19T02:23:52.034Z,98802.66
2024-01-19T02:26:56.647Z,98809.91
2024-01-19T02:29:59.291Z,98801.31
2024-01-19T02:33:02.397Z,98810.16
2024-01-19T02:36:05.112Z,98810.38
2024-01-19T02:39:07.270Z,98817.38
2024-01-19T02:42:09.806Z,98840.13
2024-01-19T02:45:12.459Z,98854.22
2024-01-19T02:48:14.734Z,98856.41
2024-01-19T02:51:17.256Z,98850.50
2024-01-19T02:54:19.720Z,98861.88
2024-01-19T02:57:21.840Z,98866.19
2024-01-19T03:00:24.332Z,98863.16
2024-01-19T03:03:26.795Z,98882.38
2024-01-19T03:06:28.970Z,98889.59
2024-01-19T03:09:31.454Z,98891.44
2024-01-19T03:12:33.579Z,98887.25
2024-01-19T03:15:36.326Z,98900.44
2024-01-19T03:18:38.797Z,98899.78
2024-01-19T03:21:40.929Z,98903.09
2024-01-19T03:24:43.409Z,98917.16
2024-01-19T03:27:45.884Z,98919.69
2024-01-19T03:30:48.331Z,98917.16
2024-01-19T03:33:50.632Z,98932.88
2024-01-19T03:36:53.314Z,98934.75
2024-01-19T03:39:55.781Z,98939.88
2024-01-19T03:42:58.417Z,98943.47
2024-01-19T03:46:02.104Z,98947.03
2024-01-19T03:49:04.572Z,98946.25
2024-01-19T03:52:09.291Z,98955.88
2024-01-19T03:55:11.717Z,98947.53
2024-01-19T03:58:14.059Z,98967.34
2024-01-19T04:01:17.508Z,98982.47
2024-01-19T04:04:19.854Z,98997.25
2024-01-19T04:07:22.324Z,99001.69
2024-01-19T04:10:24.599Z,98997.50
2024-01-19T04:13:27.004Z,99017.44
2024-01-19T04:16:29.613Z,99038.25
2024-01-19T04:19:32.108Z,99029.62
2024-01-19T04:22:34.833Z,99038.19
2024-01-19T04:25:37.049Z,99044.41
2024-01-19T04:28:40.644Z,99036.72
2024-01-19T04:31:43.259Z,99039.50
2024-01-19T04:34:45.782Z,99046.38
2024-01-19T04:37:48.229Z,99050.94
2024-01-19T04:40:50.377Z,99060.66
2024-01-19T04:43:52.490Z,99070.91
2024-01-19T04:46:54.970Z,99091.50
2024-01-19T04:49:57.676Z,99093.34
2024-01-19T04:52:59.920Z,99106.22
2024-01-19T04:56:05.685Z,99103.72
2024-01-19T04:59:08.361Z,99123.50
2024-01-19T05:02:10.544Z,99125.28
2024-01-19T05:05:12.894Z,99132.41
2024-01-19T05:08:15.448Z,99148.03
2024-01-19T05:11:17.737Z,99164.72
2024-01-19T05:14:20.224Z,99176.00
2024-01-19T05:17:22.746Z,99178.59
2024-01-19T05:20:25.251Z,99186.37
2024-01-19T05:23:27.768Z,99177.81
2024-01-19T05:26:31.054Z,99183.00
2024-01-19T05:29:33.224Z,99187.66
2024-01-19T05:32:35.816Z,99206.72
2024-01-19T05:35:38.005Z,99207.78
2024-01-19T05:38:40.163Z,99220.12
2024-01-19T05:41:42.348Z,99221.03
2024-01-19T05:44:46.379Z,99234.16
2024-01-19T05:47:48.959Z,99235.09
2024-01-19T05:50:51.410Z,99244.59
2024-01-19T05:53:53.887Z,99250.88
2024-01-19T05:56:56.508Z,99246.72
2024-01-19T05:59:58.737Z,99256.28
2024-01-19T06:03:01.400Z,99261.53
2024-01-19T06:06:04.982Z,99266.00
2024-01-19T06:09:09.136Z,99274.69
2024-01-19T06:12:11.661Z,99272.97
2024-01-19T06:15:14.313Z,99276.53
2024-01-19T06:18:16.669Z,99282.66
2024-01-19T06:21:19.126Z,99274.84
2024-01-19T06:24:21.539Z,99281.91
2024-01-19T06:27:23.973Z,99275.81
2024-01-19T06:30:26.638Z,99302.69
2024-01-19T06:33:29.466Z,99327.78
2024-01-19T06:36:32.364Z,99341.72
2024-01-19T06:39:35.281Z,99358.13
2024-01-19T06:42:38.628Z,99359.19
2024-01-19T06:45:40.781Z,99374.72
2024-01-19T06:48:43.385Z,99384.31
2024-01-19T06:51:45.676Z,99387.81
2024-01-19T06:54:47.873Z,99372.34
2024-01-19T06:57:50.449Z,99378.44
2024-01-19T07:00:52.643Z,99387.06
2024-01-19T07:03:55.177Z,99408.59
2024-01-19T07:06:58.036Z,99415.63
2024-01-19T07:10:00.217Z,99424.22
2024-01-19T07:13:02.362Z,99438.06
2024-01-19T07:16:05.080Z,99441.59
2024-01-19T07:19:07.993Z,99445.91
2024-01-19T07:22:10.153Z,99457.22
2024-01-19T07:25:12.630Z,99448.66
2024-01-19T07:28:15.039Z,99445.13
2024-01-19T07:31:17.526Z,99453.78
2024-01-19T07:34:20.084Z,99465.06
2024-01-19T07:37:22.311Z,99481.47
2024-01-19T07:40:24.830Z,99483.25
2024-01-19T07:43:26.943Z,99487.66
2024-01-19T07:46:29.428Z,99493.78
2024-01-19T07:49:31.917Z,99498.81
2024-01-19T07:52:34.185Z,99508.34
2024-01-19T07:55:36.736Z,99521.34
2024-01-19T07:58:39.008Z,99519.50
2024-01-19T08:01:41.495Z,99512.75
2024-01-19T08:04:44.365Z,99516.28
2024-01-19T08:07:46.573Z,99537.88
2024-01-19T08:10:48.866Z,99526.59
2024-01-19T08:13:52.064Z,99511.91
2024-01-19T08:16:54.150Z,99530.03
2024-01-19T08:19:56.840Z,99517.03
2024-01-19T08:22:59.477Z,99529.94
2024-01-19T08:26:02.511Z,99532.59
2024-01-19T08:29:05.258Z,99548.25
2024-01-19T08:32:07.670Z,99561.16
2024-01-19T08:35:10.176Z,99554.50
2024-01-19T08:38:14.783Z,99573.69
2024-01-19T08:41:17.196Z,99575.44
2024-01-19T08:44:19.749Z,99584.91
2024-01-19T08:47:22.197Z,99591.03
2024-01-19T08:50:25.736Z,99584.97
2024-01-19T08:53:31.358Z,99597.81
2024-01-19T08:56:34.949Z,99602.97
2024-01-19T08:59:41.159Z,99609.06
2024-01-19T09:02:50.202Z,99620.97
2024-01-19T09:05:59.670Z,99634.78
2024-01-19T09:09:05.014Z,99623.38
2024-01-19T09:12:07.862Z,99622.16
2024-01-19T09:15:10.434Z,99627.03
2024-01-19T09:18:13.149Z,99630.13
2024-01-19T09:21:21.388Z,99652.25
2024-01-19T09:24:23.781Z,99667.47
2024-01-19T09:27:26.044Z,99686.28
2024-01-19T09:30:28.465Z,99706.88
2024-01-19T09:33:30.865Z,99717.97
2024-01-19T09:36:33.544Z,99723.12
2024-01-19T09:39:35.617Z,99725.66
2024-01-19T09:42:41.237Z,99723.97
2024-01-19T09:45:49.017Z,99738.53
2024-01-19T09:49:05.278Z,99735.81
2024-01-19T09:52:10.614Z,99731.47
2024-01-19T09:55:13.083Z,99738.34
2024-01-19T09:58:17.481Z,99735.69
2024-01-19T10:01:19.630Z,99738.22
2024-01-19T10:04:22.665Z,99748.53
2024-01-19T10:07:25.597Z,99739.75
2024-01-19T10:10:27.733Z,99735.97
2024-01-19T10:13:29.979Z,99737.69
2024-01-19T10:16:33.743Z,99751.50
2024-01-19T10:19:37.213Z,99744.47
2024-01-19T10:22:43.673Z,99750.50
2024-01-19T10:25:46.182Z,99750.41
2024-01-19T10:28:48.279Z,99765.75
2024-01-19T10:31:52.545Z,99763.91
2024-01-19T10:35:08.794Z,99765.59
2024-01-19T10:38:12.634Z,99762.84
2024-01-19T10:41:18.956Z,99783.41
2024-01-19T10:44:24.860Z,99794.66
2024-01-19T10:47:27.664Z,99801.53
2024-01-19T10:50:32.388Z,99786.69
2024-01-19T10:53:34.745Z,99793.41
2024-01-19T10:56:39.793Z,99799.44
2024-01-19T10:59:42.397Z,99793.28
2024-01-19T11:02:48.644Z,99809.59
2024-01-19T11:05:51.877Z,99806.78
2024-01-19T11:08:54.208Z,99812.59
2024-01-19T11:12:00.316Z,99815.12
2024-01-19T11:15:03.011Z,99824.69
2024-01-19T11:18:07.195Z,99823.84
2024-01-19T11:21:09.968Z,99827.22
2024-01-19T11:24:17.496Z,99827.22
2024-01-19T11:27:29.027Z,99836.66
2024-01-19T11:30:46.291Z,99845.38
2024-01-19T11:33:48.952Z,99855.78
2024-01-19T11:36:51.472Z,99836.94
2024-01-19T11:39:53.978Z,99834.50
2024-01-19T11:42:56.229Z,99850.91
2024-01-19T11:45:58.442Z,99857.00
2024-01-19T11:49:00.829Z,99860.53
2024-01-19T11:52:23.932Z,99863.91
2024-01-19T11:55:29.709Z,99875.53
2024-01-19T11:58:33.863Z,99874.09
2024-01-19T12:01:42.098Z,99866.38
2024-01-19T12:04:46.421Z,99873.41
2024-01-19T12:07:48.952Z,99888.84
2024-01-19T12:11:04.456Z,99881.53
2024-01-19T12:14:07.188Z,99878.81
2024-01-19T12:17:09.964Z,99903.72
2024-01-19T12:20:17.436Z,99900.09
2024-01-19T12:23:20.302Z,99910.84
2024-01-19T12:26:23.298Z,99902.09
2024-01-19T12:29:37.592Z,99880.66
2024-01-19T12:32:39.977Z,99874.47
2024-01-19T12:35:43.623Z,99877.00
2024-01-19T12:38:45.912Z,99903.88
2024-01-19T12:42:03.806Z,99907.44
2024-01-19T12:45:06.558Z,99898.81
2024-01-19T12:48:18.790Z,99907.28
2024-01-19T12:51:27.848Z,99882.06
2024-01-19T12:54:47.710Z,99885.47
2024-01-19T12:57:50.692Z,99895.91
2024-01-19T13:00:53.938Z,99896.53
2024-01-19T13:03:59.573Z,99901.87
2024-01-19T13:07:05.038Z,99917.44
2024-01-19T13:10:07.831Z,99919.94
2024-01-19T13:13:19.192Z,99921.53
2024-01-19T13:16:21.489Z,99922.31
2024-01-19T13:19:23.887Z,99926.06
2024-01-19T13:22:28.059Z,99932.25
2024-01-19T13:25:30.775Z,99947.13
2024-01-19T13:28:33.201Z,99955.78
2024-01-19T13:31:36.236Z,99948.94
2024-01-19T13:34:38.581Z,99964.56
2024-01-19T13:37:41.173Z,99967.09
2024-01-19T13:40:43.649Z,99957.53
2024-01-19T13:43:46.953Z,99968.97
2024-01-19T13:46:49.589Z,99986.25
2024-01-19T13:49:52.097Z,99982.88
2024-01-19T13:52:54.695Z,99990.75
2024-01-19T13:55:57.061Z,99982.09
2024-01-19T13:58:59.553Z,99993.37
2024-01-19T14:02:02.088Z,100008.12
2024-01-19T14:05:06.206Z,100023.63
2024-01-19T14:08:11.155Z,100044.56
2024-01-19T14:11:15.342Z,100042.88
2024-01-19T14:14:18.679Z,100040.34
2024-01-19T14:17:21.236Z,100031.69
2024-01-19T14:20:23.657Z,100038.66
2024-01-19T14:23:26.122Z,100040.41
2024-01-19T14:26:28.673Z,100035.16
2024-01-19T14:29:32.406Z,100051.72
2024-01-19T14:32:38.002Z,100051.66
2024-01-19T14:35:41.237Z,100064.63
2024-01-19T14:38:43.743Z,100075.22
2024-01-19T14:41:46.159Z,100086.53
2024-01-19T14:44:48.633Z,100076.97
2024-01-19T14:47:51.115Z,100070.94
2024-01-19T14:50:53.795Z,100089.16
2024-01-19T14:53:56.924Z,100099.56
2024-01-19T14:57:03.183Z,100100.53
2024-01-19T15:00:09.734Z,100094.41
2024-01-19T15:03:12.306Z,100092.84
2024-01-19T15:06:16.490Z,100119.69
2024-01-19T15:09:18.773Z,100131.87
2024-01-19T15:12:21.283Z,100134.66
2024-01-19T15:15:23.480Z,100138.03
2024-01-19T15:18:27.114Z,100133.75
2024-01-19T15:21:30.470Z,100122.50
2024-01-19T15:24:35.708Z,100119.91
2024-01-19T15:27:39.634Z,100139.81
2024-01-19T15:30:44.044Z,100141.56
2024-01-19T15:33:47.163Z,100141.56
2024-01-19T15:36:52.706Z,100150.25
2024-01-19T15:39:55.219Z,100155.53
2024-01-19T15:42:57.820Z,100146.78
2024-01-19T15:46:00.240Z,100141.50
2024-01-19T15:49:04.551Z,100150.94
2024-01-19T15:52:08.592Z,100173.63
2024-01-19T15:55:11.120Z,100196.19
2024-01-19T15:58:13.694Z,100200.44
2024-01-19T16:01:17.188Z,100202.19
2024-01-19T16:04:19.758Z,100214.28
2024-01-19T16:07:22.192Z,100235.94
2024-01-19T16:10:24.985Z,100249.88
2024-01-19T16:13:30.426Z,100252.47
2024-01-19T16:16:33.816Z,100245.56
2024-01-19T16:19:38.527Z,100243.03
2024-01-19T16:22:40.908Z,100242.22
2024-01-19T16:25:43.631Z,100244.88
2024-01-19T16:28:46.893Z,100248.34
2024-01-19T16:31:50.229Z,100252.62
2024-01-19T16:34:52.469Z,100269.12
2024-01-19T16:37:54.962Z,100281.25
2024-01-19T16:40:57.955Z,100283.84
2024-01-19T16:44:04.802Z,100302.94
2024-01-19T16:47:07.418Z,100296.97
2024-01-19T16:50:11.982Z,100284.00
2024-01-19T16:53:14.563Z,100295.31
2024-01-19T16:56:17.408Z,100299.62
2024-01-19T16:59:19.762Z,100311.72
2024-01-19T17:02:22.302Z,100318.66
2024-01-19T17:05:24.917Z,100324.78
2024-01-19T17:08:27.442Z,100323.97
2024-01-19T17:11:29.998Z,100329.13
2024-01-19T17:14:37.223Z,100330.81
2024-01-19T17:17:42.754Z,100334.31
2024-01-19T17:20:45.402Z,100325.66
2024-01-19T17:23:49.165Z,100336.97
2024-01-19T17:26:51.440Z,100342.97
2024-01-19T17:29:53.864Z,100330.03
2024-01-19T17:32:57.815Z,100343.06
2024-01-19T17:36:00.523Z,100371.72
2024-01-19T17:39:03.830Z,100380.47
2024-01-19T17:42:06.601Z,100355.37
2024-01-19T17:45:16.353Z,100357.12
2024-01-19T17:48:24.492Z,100369.25
2024-01-19T17:51:27.046Z,100381.44
2024-01-19T17:54:32.456Z,100398.69
2024-01-19T17:57:36.028Z,100409.84
2024-01-19T18:00:38.795Z,100412.50
2024-01-19T18:03:41.244Z,100407.25
2024-01-19T18:06:43.534Z,100408.84
2024-01-19T18:09:47.214Z,100429.72
2024-01-19T18:12:49.392Z,100433.16
2024-01-19T18:15:51.922Z,100443.66
2024-01-19T18:18:54.256Z,100442.75
2024-01-19T18:21:57.076Z,100444.47
2024-01-19T18:24:59.647Z,100446.25
2024-01-19T18:28:02.237Z,100452.31
2024-01-19T18:31:04.989Z,100454.97
2024-01-19T18:34:08.473Z,100448.22
2024-01-19T18:37:11.100Z,100461.06
2024-01-19T18:40:13.686Z,100471.53
2024-01-19T18:43:16.451Z,100476.00
2024-01-19T18:46:18.592Z,100474.25
2024-01-19T18:49:21.079Z,100480.44
2024-01-19T18:52:23.598Z,100490.81
2024-01-19T18:55:26.244Z,100489.94
2024-01-19T18:58:29.806Z,100490.88
2024-01-19T19:01:35.004Z,100503.06
2024-01-19T19:04:37.620Z,100503.94
2024-01-19T19:07:40.017Z,100510.03
2024-01-19T19:10:43.815Z,100508.22
2024-01-19T19:13:46.742Z,100517.75
2024-01-19T19:16:49.490Z,100514.34
2024-01-19T19:19:52.151Z,100529.06
2024-01-19T19:22:58.354Z,100532.56
2024-01-19T19:26:01.150Z,100546.41
2024-01-19T19:29:04.308Z,100552.56
2024-01-19T19:32:06.653Z,100557.88
2024-01-19T19:35:09.224Z,100560.47
2024-01-19T19:38:11.492Z,100556.09
2024-01-19T19:41:14.352Z,100570.88
2024-01-19T19:44:16.705Z,100571.75
2024-01-19T19:47:19.105Z,100570.91
2024-01-19T19:50:21.726Z,100568.31
2024-01-19T19:53:24.007Z,100579.66
2024-01-19T19:56:26.539Z,100577.88
2024-01-19T19:59:29.307Z,100589.16
2024-01-19T20:02:31.646Z,100586.47
2024-01-19T20:05:34.109Z,100590.81
2024-01-19T20:08:37.385Z,100591.62
2024-01-19T20:11:39.912Z,100597.66
2024-01-19T20:14:42.688Z,100604.59
2024-01-19T20:17:45.382Z,100598.59
2024-01-19T20:20:50.067Z,100606.41
2024-01-19T20:23:52.422Z,100610.78
2024-01-19T20:26:55.483Z,100619.44
2024-01-19T20:29:58.205Z,100624.72
2024-01-19T20:33:02.463Z,100626.47
2024-01-19T20:36:05.648Z,100624.75
2024-01-19T20:39:08.785Z,100635.16
2024-01-19T20:42:11.526Z,100623.09
2024-01-19T20:45:14.752Z,100634.34
2024-01-19T20:48:17.369Z,100633.50
2024-01-19T20:51:19.651Z,100630.03
2024-01-19T20:54:25.665Z,100637.03
2024-01-19T20:57:27.991Z,100634.47
2024-01-19T21:00:32.044Z,100633.66
2024-01-19T21:03:34.648Z,100641.50
2024-01-19T21:06:37.374Z,100630.31
2024-01-19T21:09:44.213Z,100645.00
2024-01-19T21:12:48.756Z,100645.91
2024-01-19T21:15:53.541Z,100647.69
2024-01-19T21:18:56.645Z,100647.72
2024-01-19T21:22:04.243Z,100654.69
2024-01-19T21:25:09.396Z,100663.34
2024-01-19T21:28:11.636Z,100664.25
2024-01-19T21:31:14.245Z,100669.44
2024-01-19T21:34:17.796Z,100674.66
2024-01-19T21:37:21.105Z,100688.44
2024-01-19T21:40:25.299Z,100687.59
2024-01-19T21:43:28.114Z,100693.69
2024-01-19T21:46:30.644Z,100695.44
2024-01-19T21:49:33.180Z,100703.25
2024-01-19T21:52:35.957Z,100714.47
2024-01-19T21:55:38.683Z,100724.87
2024-01-19T21:58:41.119Z,100734.38
2024-01-19T22:01:49.493Z,100742.19
2024-01-19T22:04:52.619Z,100749.09
2024-01-19T22:07:55.229Z,100756.84
2024-01-19T22:10:57.919Z,100749.94
2024-01-19T22:14:01.011Z,100759.47
2024-01-19T22:17:05.554Z,100756.00
2024-01-19T22:20:08.349Z,100762.03
2024-01-19T22:23:10.560Z,100754.28
2024-01-19T22:26:13.157Z,100748.22
2024-01-19T22:29:15.995Z,100761.22
2024-01-19T22:32:18.522Z,100756.03
2024-01-19T22:35:21.092Z,100760.34
2024-01-19T22:38:24.208Z,100768.13
2024-01-19T22:41:27.180Z,100773.31
2024-01-19T22:44:32.524Z,100783.72
2024-01-19T22:47:35.062Z,100786.31
2024-01-19T22:50:37.641Z,100797.50
2024-01-19T22:53:42.220Z,100800.13
2024-01-19T22:56:44.639Z,100803.59
2024-01-19T22:59:48.974Z,100806.19
2024-01-19T23:02:51.499Z,100806.19
2024-01-19T23:05:54.506Z,100800.13
2024-01-19T23:08:57.158Z,100809.59
2024-01-19T23:11:59.723Z,100816.50
2024-01-19T23:15:09.097Z,100812.19
2024-01-19T23:18:12.033Z,100809.63
2024-01-19T23:21:15.119Z,100814.78
2024-01-19T23:24:18.156Z,100817.34
2024-01-19T23:27:20.383Z,100830.25
2024-01-19T23:30:22.861Z,100823.34
2024-01-19T23:33:25.312Z,100827.63
2024-01-19T23:36:27.656Z,100826.72
2024-01-19T23:39:31.293Z,100825.00
2024-01-19T23:42:33.607Z,100827.56
2024-01-19T23:45:36.236Z,100834.38
2024-01-19T23:48:38.965Z,100830.91
2024-01-19T23:51:41.477Z,100836.91
2024-01-19T23:54:43.909Z,100843.75
2024-01-19T23:57:46.605Z,100848.91
